createdAt,value
2023-04-05T00:01:21.338Z,102683.75
2023-04-05T00:06:29.033Z,102684.25
2023-04-05T00:11:32.847Z,102668.91
2023-04-05T00:16:42.019Z,102671.94
2023-04-05T00:21:49.390Z,102665.22
2023-04-05T00:26:51.221Z,102672.50
2023-04-05T00:31:56.555Z,102663.81
2023-04-05T00:37:00.565Z,102662.28
2023-04-05T00:42:04.567Z,102650.25
2023-04-05T00:47:08.716Z,102649.66
2023-04-05T00:52:10.655Z,102659.50
2023-04-05T00:57:15.100Z,102654.41
2023-04-05T01:02:31.826Z,102650.88
2023-04-05T01:07:43.242Z,102645.78
2023-04-05T01:12:45.095Z,102653.69
2023-04-05T01:17:47.047Z,102643.97
2023-04-05T01:23:08.124Z,102650.28
2023-04-05T01:28:21.838Z,102656.81
2023-04-05T01:33:39.728Z,102648.44
2023-04-05T01:38:49.338Z,102648.59
2023-04-05T01:43:51.088Z,102643.31
2023-04-05T01:48:52.784Z,102629.44
2023-04-05T01:53:56.759Z,102638.34
2023-04-05T01:58:58.428Z,102632.44
2023-04-05T02:04:02.406Z,102629.13
2023-04-05T02:09:06.856Z,102626.00
2023-04-05T02:14:10.852Z,102624.69
2023-04-05T02:19:15.971Z,102619.88
2023-04-05T02:24:20.380Z,102620.88
2023-04-05T02:29:25.029Z,102617.00
2023-04-05T02:34:31.756Z,102623.56
2023-04-05T02:39:40.795Z,102615.03
2023-04-05T02:44:46.638Z,102618.66
2023-04-05T02:49:52.275Z,102615.09
2023-04-05T02:54:54.356Z,102613.59
2023-04-05T03:00:05.108Z,102606.88
2023-04-05T03:05:09.277Z,102595.00
2023-04-05T03:10:13.821Z,102599.03
2023-04-05T03:15:16.464Z,102596.63
2023-04-05T03:20:19.889Z,102586.47
2023-04-05T03:25:25.639Z,102595.88
2023-04-05T03:30:30.138Z,102601.47
2023-04-05T03:35:39.833Z,102594.06
2023-04-05T03:40:46.901Z,102593.50
2023-04-05T03:45:53.700Z,102595.56
2023-04-05T03:50:58.837Z,102593.88
2023-04-05T03:56:00.572Z,102581.03
2023-04-05T04:01:34.712Z,102583.56
2023-04-05T04:06:37.244Z,102580.25
2023-04-05T04:11:42.132Z,102588.22
2023-04-05T04:16:45.007Z,102574.94
2023-04-05T04:22:05.339Z,102566.31
2023-04-05T04:27:29.080Z,102572.56
2023-04-05T04:32:59.854Z,102570.88
2023-04-05T04:38:21.714Z,102573.72
2023-04-05T04:43:44.720Z,102574.69
2023-04-05T04:48:53.084Z,102574.78
2023-04-05T04:54:07.421Z,102579.25
2023-04-05T04:59:09.152Z,102573.97
2023-04-05T05:04:11.191Z,102580.44
2023-04-05T05:09:15.729Z,102575.09
2023-04-05T05:14:32.365Z,102571.75
2023-04-05T05:19:36.507Z,102578.44
2023-04-05T05:24:38.259Z,102567.34
2023-04-05T05:29:45.194Z,102567.41
2023-04-05T05:34:48.650Z,102572.59
2023-04-05T05:39:55.410Z,102577.50
2023-04-05T05:44:59.354Z,102579.59
2023-04-05T05:50:04.118Z,102573.03
2023-04-05T05:55:09.491Z,102559.00
2023-04-05T06:00:14.398Z,102569.50
2023-04-05T06:05:16.640Z,102567.06
2023-04-05T06:10:24.296Z,102567.16
2023-04-05T06:15:26.003Z,102578.38
2023-04-05T06:20:32.531Z,102569.41
2023-04-05T06:25:34.212Z,102565.91
2023-04-05T06:30:35.989Z,102566.72
2023-04-05T06:35:40.318Z,102556.88
2023-04-05T06:40:44.432Z,102558.44
2023-04-05T06:45:46.358Z,102561.69
2023-04-05T06:50:48.078Z,102560.31
2023-04-05T06:55:56.056Z,102551.75
2023-04-05T07:01:01.481Z,102551.75
2023-04-05T07:06:04.351Z,102561.34
2023-04-05T07:11:06.196Z,102548.13
2023-04-05T07:16:10.314Z,102554.38
2023-04-05T07:21:14.643Z,102549.56
2023-04-05T07:26:18.928Z,102559.47
2023-04-05T07:31:22.921Z,102563.59
2023-04-05T07:36:24.656Z,102561.78
2023-04-05T07:41:35.274Z,102556.34
2023-04-05T07:46:45.115Z,102556.09
2023-04-05T07:51:48.704Z,102552.34
2023-04-05T07:56:57.538Z,102552.06
2023-04-05T08:02:05.044Z,102549.31
2023-04-05T08:07:14.002Z,102543.50
2023-04-05T08:12:17.936Z,102552.22
2023-04-05T08:17:20.358Z,102553.91
2023-04-05T08:22:22.147Z,102550.06
2023-04-05T08:27:28.870Z,102551.19
2023-04-05T08:32:33.664Z,102542.97
2023-04-05T08:37:36.055Z,102548.25
2023-04-05T08:42:46.431Z,102546.78
2023-04-05T08:47:49.875Z,102545.66
2023-04-05T08:52:52.369Z,102547.50
2023-04-05T08:57:59.084Z,102543.91
2023-04-05T09:03:03.372Z,102530.66
2023-04-05T09:08:08.012Z,102529.13
2023-04-05T09:13:13.886Z,102530.13
2023-04-05T09:18:26.272Z,102526.41
2023-04-05T09:23:29.074Z,102524.16
2023-04-05T09:28:42.061Z,102519.06
2023-04-05T09:33:46.565Z,102518.91
2023-04-05T09:38:48.401Z,102514.09
2023-04-05T09:43:53.044Z,102509.34
2023-04-05T09:48:54.962Z,102508.63
2023-04-05T09:54:05.161Z,102516.81
2023-04-05T09:59:10.619Z,102514.03
2023-04-05T10:04:12.782Z,102508.34
2023-04-05T10:09:15.268Z,102504.66
2023-04-05T10:14:17.032Z,102497.03
2023-04-05T10:19:31.560Z,102494.28
2023-04-05T10:24:50.744Z,102487.31
2023-04-05T10:30:05.849Z,102492.28
2023-04-05T10:35:17.382Z,102487.72
2023-04-05T10:40:22.891Z,102489.69
2023-04-05T10:45:27.538Z,102485.16
2023-04-05T10:50:34.890Z,102468.97
2023-04-05T10:55:36.791Z,102462.88
2023-04-05T11:00:38.820Z,102460.38
2023-04-05T11:05:45.422Z,102462.13
2023-04-05T11:10:52.373Z,102458.06
2023-04-05T11:16:10.074Z,102451.19
2023-04-05T11:21:11.844Z,102456.25
2023-04-05T11:26:13.585Z,102449.91
2023-04-05T11:31:19.704Z,102438.25
2023-04-05T11:36:38.455Z,102433.06
2023-04-05T11:41:42.767Z,102438.34
2023-04-05T11:46:47.023Z,102439.41
2023-04-05T11:51:49.069Z,102422.34
2023-04-05T11:56:53.239Z,102421.91
2023-04-05T12:02:08.288Z,102423.91
2023-04-05T12:07:20.540Z,102423.13
2023-04-05T12:12:24.374Z,102426.59
2023-04-05T12:17:39.087Z,102407.50
2023-04-05T12:22:44.883Z,102408.38
2023-04-05T12:27:46.953Z,102411.88
2023-04-05T12:32:52.074Z,102398.28
2023-04-05T12:37:53.872Z,102406.53
2023-04-05T12:43:08.211Z,102384.66
2023-04-05T12:48:13.187Z,102382.97
2023-04-05T12:53:21.647Z,102378.78
2023-04-05T12:58:36.844Z,102372.72
2023-04-05T13:03:41.700Z,102363.28
2023-04-05T13:08:45.785Z,102357.97
2023-04-05T13:13:50.687Z,102363.59
2023-04-05T13:18:57.121Z,102346.75
2023-04-05T13:24:01.048Z,102339.03
2023-04-05T13:29:05.287Z,102344.00
2023-04-05T13:34:12.262Z,102344.75
2023-04-05T13:39:13.907Z,102332.22
2023-04-05T13:44:20.246Z,102330.22
2023-04-05T13:49:26.525Z,102324.94
2023-04-05T13:54:31.579Z,102321.75
2023-04-05T13:59:38.174Z,102324.81
2023-04-05T14:04:42.317Z,102319.25
2023-04-05T14:09:44.764Z,102313.91
2023-04-05T14:14:46.768Z,102309.72
2023-04-05T14:19:51.110Z,102308.25
2023-04-05T14:24:57.477Z,102308.69
2023-04-05T14:30:01.385Z,102302.19
2023-04-05T14:35:03.152Z,102302.63
2023-04-05T14:40:07.671Z,102301.28
2023-04-05T14:45:10.357Z,102293.63
2023-04-05T14:50:14.360Z,102291.66
2023-04-05T14:55:18.322Z,102282.81
2023-04-05T15:00:22.845Z,102280.63
2023-04-05T15:05:24.589Z,102277.59
2023-04-05T15:10:28.693Z,102268.03
2023-04-05T15:15:32.767Z,102261.28
2023-04-05T15:20:35.429Z,102256.38
2023-04-05T15:25:39.531Z,102245.28
2023-04-05T15:30:45.733Z,102241.09
2023-04-05T15:35:49.933Z,102247.63
2023-04-05T15:40:57.909Z,102240.63
2023-04-05T15:45:59.621Z,102247.09
2023-04-05T15:51:01.383Z,102234.72
2023-04-05T15:56:05.956Z,102221.09
2023-04-05T16:01:10.125Z,102226.66
2023-04-05T16:06:14.980Z,102229.91
2023-04-05T16:11:16.718Z,102225.84
2023-04-05T16:16:29.828Z,102222.41
2023-04-05T16:21:36.945Z,102217.63
2023-04-05T16:26:45.925Z,102209.78
2023-04-05T16:31:47.951Z,102202.44
2023-04-05T16:36:49.812Z,102208.63
2023-04-05T16:41:51.622Z,102202.28
2023-04-05T16:46:56.575Z,102199.66
2023-04-05T16:52:03.474Z,102200.28
2023-04-05T16:57:09.965Z,102199.38
2023-04-05T17:02:11.754Z,102201.38
2023-04-05T17:07:16.626Z,102191.59
2023-04-05T17:12:20.815Z,102191.63
2023-04-05T17:17:29.930Z,102194.16
2023-04-05T17:22:34.450Z,102183.56
2023-04-05T17:27:38.967Z,102198.78
2023-04-05T17:32:42.855Z,102181.34
2023-04-05T17:37:47.664Z,102183.56
2023-04-05T17:42:52.983Z,102184.44
2023-04-05T17:47:54.850Z,102184.25
2023-04-05T17:52:58.800Z,102194.16
2023-04-05T17:58:00.775Z,102191.03
2023-04-05T18:03:08.286Z,102184.69
2023-04-05T18:08:10.591Z,102187.38
2023-04-05T18:13:16.951Z,102188.16
2023-04-05T18:18:18.718Z,102187.16
2023-04-05T18:23:27.553Z,102186.59
2023-04-05T18:28:29.284Z,102187.53
2023-04-05T18:33:31.035Z,102186.91
2023-04-05T18:38:35.392Z,102194.59
2023-04-05T18:43:39.586Z,102194.53
2023-04-05T18:48:41.481Z,102199.69
2023-04-05T18:53:46.062Z,102196.41
2023-04-05T18:58:53.246Z,102207.28
2023-04-05T19:04:01.843Z,102205.09
2023-04-05T19:09:06.337Z,102217.38
2023-04-05T19:14:10.462Z,102221.81
2023-04-05T19:19:12.543Z,102213.00
2023-04-05T19:24:16.463Z,102217.56
2023-04-05T19:29:18.738Z,102211.63
2023-04-05T19:34:23.065Z,102208.53
2023-04-05T19:39:25.562Z,102205.69
2023-04-05T19:45:00.218Z,102211.63
2023-04-05T19:50:02.183Z,102207.31
2023-04-05T19:55:27.653Z,102206.00
2023-04-05T20:00:41.289Z,102199.88
2023-04-05T20:05:45.754Z,102197.09
2023-04-05T20:10:53.081Z,102188.75
2023-04-05T20:15:55.520Z,102184.56
2023-04-05T20:20:57.686Z,102187.31
2023-04-05T20:26:04.868Z,102181.22
2023-04-05T20:31:12.395Z,102184.03
2023-04-05T20:36:21.586Z,102179.25
2023-04-05T20:41:23.337Z,102177.53
2023-04-05T20:46:27.979Z,102171.47
2023-04-05T20:51:32.356Z,102166.63
2023-04-05T20:56:34.165Z,102163.50
2023-04-05T21:01:38.118Z,102165.88
2023-04-05T21:06:42.368Z,102158.75
2023-04-05T21:11:46.488Z,102157.53
2023-04-05T21:16:48.201Z,102160.13
2023-04-05T21:21:52.284Z,102150.38
2023-04-05T21:26:58.788Z,102141.41
2023-04-05T21:32:03.066Z,102139.34
2023-04-05T21:37:09.729Z,102132.78
2023-04-05T21:42:14.514Z,102139.03
2023-04-05T21:47:18.984Z,102133.66
2023-04-05T21:52:20.770Z,102128.19
2023-04-05T21:57:24.791Z,102129.81
2023-04-05T22:02:26.617Z,102125.19
2023-04-05T22:07:28.490Z,102114.44
2023-04-05T22:12:32.717Z,102115.59
2023-04-05T22:17:37.003Z,102123.34
2023-04-05T22:22:41.259Z,102113.09
2023-04-05T22:27:47.808Z,102110.69
2023-04-05T22:32:52.188Z,102112.28
2023-04-05T22:37:56.156Z,102109.31
2023-04-05T22:42:57.869Z,102102.53
2023-04-05T22:47:59.692Z,102101.53
2023-04-05T22:53:06.042Z,102104.28
2023-04-05T22:58:10.363Z,102103.13
2023-04-05T23:03:16.731Z,102095.19
2023-04-05T23:08:18.759Z,102094.03
2023-04-05T23:13:25.959Z,102077.63
2023-04-05T23:18:30.121Z,102079.63
2023-04-05T23:23:36.486Z,102076.69
2023-04-05T23:28:38.232Z,102074.47
2023-04-05T23:33:42.455Z,102067.59
2023-04-05T23:38:44.182Z,102064.28
2023-04-05T23:43:46.250Z,102067.25
2023-04-05T23:48:52.525Z,102062.38
2023-04-05T23:53:54.282Z,102057.19
2023-04-05T23:58:58.295Z,102048.50
